Flight Track Log - Related Links

Times and Time Zones

All times are in EST time to prevent confusion due to time zone crossing. See the DAL988 flight status page for this flight to view local times or setup timezone preferences in your user account.

Time Position Orientation Groundspeed Altitude Reporting Facility
EST Latitude Longitude Course Direction KTS MPH feet Rate Location/Type
Tue 07:18:37 PM 40.8106 -111.9781 80° East 173 199 4,900  Level Salt Lake Center
Tue 07:20:12 PM 40.9053 -111.9911 354° North 233 268 7,900 2,245 Climbing Salt Lake Center
Tue 07:20:56 PM 40.9544 -111.9972 355° North 247 284 10,100 3,000 Climbing Salt Lake Center
Tue 07:21:00 PM 40.8596 -111.4522 80° East  Level Estimated
Tue 07:21:14 PM 40.9753 -111.9964 North 250 288 11,000  Level Salt Lake Center
Tue 07:22:00 PM 40.8828 -111.2767 80° East  Level Estimated
Tue 07:22:16 PM 41.0081 -111.9058 64° Northeast 309 356 12,800  Level Salt Lake Center
Tue 07:23:00 PM 40.9057 -111.1011 80° East  Level Estimated
Tue 07:23:17 PM 41.0156 -111.7931 85° East 333 383 14,200  Level Salt Lake Center
Tue 07:24:19 PM 41.0289 -111.6214 84° East 396 456 16,400 2,098 Climbing Salt Lake Center
Tue 07:25:20 PM 41.0536 -111.4794 77° East 401 461 18,500 2,488 Climbing Salt Lake Center
Tue 07:26:22 PM 41.0856 -111.3394 73° East 397 457 21,500 2,049 Climbing Salt Lake Center
Tue 07:27:23 PM 41.1156 -111.2031 74° East 388 447 22,700 1,073 Climbing Salt Lake Center
Tue 07:28:25 PM 41.1503 -111.0500 73° East 429 494 23,700 1,113 Climbing Salt Lake Center
Tue 07:29:27 PM 41.1889 -110.8756 74° East 448 516 25,000 1,415 Climbing Salt Lake Center
Tue 07:30:28 PM 41.2233 -110.7225 73° East 453 521 26,600 1,220 Climbing Salt Lake Center
Tue 07:31:30 PM 41.2644 -110.5369 74° East 466 536 27,500 976 Climbing Salt Lake Center
Tue 07:32:31 PM 41.3000 -110.3761 74° East 473 544 28,600 1,220 Climbing Salt Lake Center
Tue 07:33:33 PM 41.3411 -110.1869 74° East 477 549 30,000 1,659 Climbing Salt Lake Center
Tue 07:34:34 PM 41.3761 -110.0272 74° East 470 541 32,000 1,220 Climbing Salt Lake Center
Tue 07:35:36 PM 41.4100 -109.8733 74° East 456 525 32,500 683 Climbing Salt Lake Center
Tue 07:36:37 PM 41.4500 -109.6864 74° East 467 537 33,400 732 Climbing Salt Lake Center
Tue 07:37:39 PM 41.4839 -109.5258 74° East 469 540 34,000 290 Climbing Salt Lake Center
Tue 07:38:41 PM 41.5244 -109.3356 74° East 473 544 34,000  Level Salt Lake Center
Tue 07:39:42 PM 41.5606 -109.1647 74° East 487 560 34,000 244 Level Salt Lake Center
Tue 07:40:44 PM 41.5914 -108.9922 77° East 489 563 34,500 488 Climbing Salt Lake Center
Tue 07:41:45 PM 41.6083 -108.7856 84° East 495 570 35,000 244 Climbing Salt Lake Center
Tue 07:42:47 PM 41.6225 -108.6086 84° East 498 573 35,000  Level Salt Lake Center
Tue 07:43:49 PM 41.6356 -108.4297 84° East 503 579 35,000  Level Salt Lake Center
Tue 07:44:50 PM 41.6494 -108.2222 85° East 503 579 35,000  Level Salt Lake Center
Tue 07:45:52 PM 41.6628 -108.0453 84° East 500 575 35,000  Level Salt Lake Center
Tue 07:46:54 PM 41.6781 -107.8383 84° East 501 577 35,000  Level Salt Lake Center
Tue 07:47:55 PM 41.6892 -107.6600 85° East 503 579 35,000  Level Salt Lake Center
Tue 07:49:01 PM 41.7028 -107.4508 85° East 502 578 35,000  Level Denver Center
Tue 07:50:03 PM 41.7144 -107.2722 85° East 502 578 35,000  Level Denver Center
Tue 07:51:05 PM 41.7286 -107.0650 85° East 502 578 35,000  Level Denver Center
Tue 07:52:07 PM 41.7392 -106.8847 85° East 503 579 35,000  Level Denver Center
Tue 07:53:09 PM 41.7519 -106.6767 85° East 503 579 35,000  Level Denver Center
Tue 07:54:11 PM 41.7628 -106.4861 86° East 504 580 35,000  Level Denver Center
Tue 07:55:13 PM 41.7731 -106.3075 86° East 504 580 35,000  Level Denver Center
Tue 07:56:15 PM 41.7831 -106.0986 86° East 504 580 35,000  Level Denver Center
Tue 07:57:18 PM 41.7936 -105.9211 85° East 504 580 35,000  Level Denver Center
Tue 07:58:20 PM 41.8039 -105.7128 86° East 503 579 35,000  Level Denver Center
Tue 07:59:22 PM 41.8122 -105.5336 86° East 504 580 35,000  Level Denver Center
Tue 08:00:24 PM 41.8225 -105.3283 86° East 501 577 35,000  Level Denver Center
Tue 08:01:26 PM 41.8306 -105.1508 86° East 499 574 35,000  Level Denver Center
Tue 08:02:28 PM 41.8400 -104.9433 86° East 501 577 35,000  Level Denver Center
Tue 08:03:30 PM 41.8472 -104.7644 87° East 504 580 35,000  Level Denver Center
Tue 08:04:32 PM 41.8553 -104.5564 87° East 503 579 35,000  Level Denver Center
Tue 08:05:34 PM 41.8622 -104.3797 87° East 502 578 35,000  Level Denver Center
Tue 08:06:36 PM 41.8700 -104.1711 87° East 501 577 35,000  Level Denver Center
Tue 08:07:38 PM 41.8761 -103.9942 87° East 501 577 35,000  Level Denver Center
Tue 08:08:40 PM 41.8839 -103.7875 87° East 500 575 35,000  Level Denver Center
Tue 08:09:42 PM 41.8892 -103.6108 88° East 499 574 35,000  Level Denver Center
Tue 08:10:44 PM 41.9039 -103.4033 84° East 500 575 35,000  Level Denver Center
Tue 08:11:46 PM 41.9294 -103.2275 79° East 503 579 35,000  Level Denver Center
Tue 08:12:48 PM 41.9575 -103.0214 80° East 503 579 35,000  Level Denver Center
Tue 08:13:50 PM 41.9819 -102.8447 79° East 505 581 35,000  Level Denver Center
Tue 08:14:52 PM 42.0103 -102.6389 79° East 504 580 35,000  Level Denver Center
Tue 08:15:54 PM 42.0331 -102.4622 80° East 504 580 35,000  Level Denver Center
Tue 08:16:56 PM 42.0564 -102.2842 80° East 504 580 35,000  Level Denver Center
Tue 08:17:57 PM 42.0836 -102.0819 80° East 505 581 35,000  Level Denver Center
Tue 08:18:59 PM 42.1108 -101.8725 80° East 507 583 35,000  Level Denver Center
Tue 08:20:01 PM 42.1344 -101.6922 80° East 507 583 35,000  Level Denver Center
Tue 08:21:03 PM 42.1558 -101.5128 81° East 507 583 35,000  Level Denver Center
Tue 08:22:05 PM 42.1822 -101.3044 80° East 507 583 35,000  Level Denver Center
Tue 08:23:07 PM 42.2042 -101.1242 81° East 507 583 35,000  Level Denver Center
Tue 08:24:09 PM 42.2283 -100.9142 81° East 507 583 35,000  Level Denver Center
Tue 08:25:11 PM 42.2497 -100.7364 81° East 506 582 35,000  Level Denver Center
Tue 08:26:13 PM 42.2736 -100.5258 81° East 506 582 35,000  Level Denver Center
Tue 08:27:15 PM 42.2947 -100.3453 81° East 506 582 35,000  Level Denver Center
Tue 08:28:16 PM 42.3183 -100.1358 81° East 506 582 35,000  Level Denver Center
Tue 08:29:18 PM 42.3381 -99.9550 82° East 506 582 35,000  Level Denver Center
Tue 08:30:20 PM 42.3578 -99.7764 81° East 505 581 35,000  Level Denver Center
Tue 08:31:22 PM 42.3808 -99.5619 82° East 504 580 35,000  Level Denver Center
Tue 08:32:24 PM 42.4008 -99.3747 82° East 504 580 35,000  Level Denver Center
Tue 08:33:25 PM 42.4208 -99.1839 82° East 505 581 35,000  Level Denver Center
Tue 08:34:27 PM 42.4394 -98.9933 82° East 509 586 35,000  Level Denver Center
Tue 08:35:29 PM 42.4586 -98.8044 82° East 507 583 35,000  Level Denver Center
Tue 08:36:59 PM 42.4811 -98.4989 84° East 506 582 35,000  Level Minneapolis Center
Tue 08:38:00 PM 42.4897 -98.3058 86° East 507 583 35,000  Level Minneapolis Center
Tue 08:39:02 PM 42.4989 -98.1128 86° East 510 587 35,000  Level Minneapolis Center
Tue 08:40:04 PM 42.5072 -97.9186 87° East 511 588 35,000  Level Minneapolis Center
Tue 08:41:06 PM 42.5153 -97.7464 86° East 511 588 35,000  Level Minneapolis Center
Tue 08:42:08 PM 42.5247 -97.5117 87° East 515 593 35,000  Level Minneapolis Center
Tue 08:43:10 PM 42.5328 -97.3189 87° East 515 593 35,000  Level Minneapolis Center
Tue 08:44:12 PM 42.5408 -97.1239 87° East 515 593 35,000  Level Minneapolis Center
Tue 08:45:13 PM 42.5481 -96.9300 87° East 515 593 35,000  Level Minneapolis Center
Tue 08:46:15 PM 42.5542 -96.7356 87° East 515 593 35,000  Level Minneapolis Center
Tue 08:47:17 PM 42.5606 -96.5425 87° East 515 593 35,000  Level Minneapolis Center
Tue 08:48:19 PM 42.5675 -96.3456 87° East 518 596 35,000  Level Minneapolis Center
Tue 08:49:21 PM 42.5733 -96.1111 88° East 518 596 35,000  Level Minneapolis Center
Tue 08:50:23 PM 42.5783 -95.9147 88° East 518 596 35,000  Level Minneapolis Center
Tue 08:51:25 PM 42.5844 -95.7189 88° East 518 596 35,000  Level Minneapolis Center
Tue 08:52:27 PM 42.5894 -95.5239 88° East 518 596 35,000  Level Minneapolis Center
Tue 08:53:29 PM 42.5939 -95.3269 88° East 518 596 35,000  Level Minneapolis Center
Tue 08:54:31 PM 42.5975 -95.1292 89° East 522 601 35,000  Level Minneapolis Center
Tue 08:55:33 PM 42.6017 -94.9314 88° East 522 601 35,000  Level Minneapolis Center
Tue 08:56:35 PM 42.6058 -94.6933 89° East 523 602 35,000  Level Minneapolis Center
Tue 08:57:37 PM 42.6081 -94.5158 89° East 523 602 35,000  Level Minneapolis Center
Tue 08:58:39 PM 42.6108 -94.3197 89° East 525 604 35,000  Level Minneapolis Center
Tue 08:59:41 PM 42.6017 -94.0828 93° East 526 605 35,000  Level Minneapolis Center
Tue 09:00:43 PM 42.5936 -93.8900 93° East 521 600 35,000  Level Minneapolis Center
Tue 09:01:44 PM 42.5836 -93.6942 94° East 521 600 35,000  Level Minneapolis Center
Tue 09:02:46 PM 42.5736 -93.4964 94° East 525 604 35,000  Level Minneapolis Center
Tue 09:03:48 PM 42.5642 -93.2992 94° East 526 605 35,000  Level Minneapolis Center
Tue 09:04:50 PM 42.5519 -93.0658 94° East 525 604 35,000  Level Minneapolis Center
Tue 09:05:52 PM 42.5414 -92.8706 94° East 525 604 35,000  Level Minneapolis Center
Tue 09:06:54 PM 42.5300 -92.6758 94° East 524 603 35,000  Level Minneapolis Center
Tue 09:07:56 PM 42.5186 -92.4831 95° East 523 602 35,000  Level Minneapolis Center
Tue 09:08:58 PM 42.5086 -92.2922 94° East 519 597 35,000  Level Minneapolis Center
Tue 09:10:00 PM 42.4967 -92.1006 95° East 518 596 35,000  Level Minneapolis Center
Tue 09:11:02 PM 42.4825 -91.8719 95° East 518 596 35,000  Level Minneapolis Center
Tue 09:12:04 PM 42.4694 -91.6828 95° East 518 596 35,000  Level Minneapolis Center
Tue 09:13:06 PM 42.4567 -91.4925 95° East 518 596 35,000  Level Minneapolis Center
Tue 09:14:24 PM 42.4386 -91.2292 95° East 511 588 35,000  Level Chicago Center
Tue 09:15:25 PM 42.4239 -91.0386 96° East 516 594 35,000  Level Chicago Center
Tue 09:16:27 PM 42.4103 -90.8461 95° East 520 598 35,000  Level Chicago Center
Tue 09:17:29 PM 42.3964 -90.6561 96° East 515 593 35,000  Level Chicago Center
Tue 09:18:31 PM 42.3844 -90.4283 94° East 512 589 35,000  Level Chicago Center
Tue 09:19:33 PM 42.3747 -90.2389 94° East 510 587 35,000  Level Chicago Center
Tue 09:20:34 PM 42.3619 -90.0500 95° East 509 586 35,000  Level Chicago Center
Tue 09:21:36 PM 42.3503 -89.8394 94° East 509 586 35,000  Level Chicago Center
Tue 09:22:38 PM 42.3389 -89.6492 95° East 511 588 35,000  Level Chicago Center
Tue 09:23:40 PM 42.3267 -89.4600 95° East 510 587 35,000  Level Chicago Center
Tue 09:24:42 PM 42.3147 -89.2714 95° East 508 585 35,000  Level Chicago Center
Tue 09:25:43 PM 42.3031 -89.0828 95° East 507 583 35,000  Level Chicago Center
Tue 09:26:45 PM 42.2881 -88.8575 95° East 506 582 35,000  Level Chicago Center
Tue 09:27:47 PM 42.2767 -88.6922 95° East 508 585 35,000  Level Chicago Center
Tue 09:28:49 PM 42.2631 -88.5061 96° East 502 578 35,000  Level Chicago Center
Tue 09:29:50 PM 42.2464 -88.2822 96° East 499 574 35,000  Level Chicago Center
Tue 09:30:52 PM 42.2322 -88.0931 96° East 503 579 35,000  Level Chicago Center
Tue 09:31:54 PM 42.2083 -87.9117 100° East 494 568 35,000  Level Chicago Center
Tue 09:32:56 PM 42.1625 -87.7350 109° East 497 572 35,000  Level Chicago Center
Tue 09:33:58 PM 42.1156 -87.5597 110° East 497 572 35,000  Level Chicago Center
Tue 09:34:59 PM 42.0683 -87.3881 110° East 489 563 35,000  Level Chicago Center
Tue 09:36:01 PM 42.0183 -87.2100 111° Southeast 505 581 35,000  Level Chicago Center
Tue 09:37:03 PM 41.9703 -87.0367 110° East 497 572 35,000  Level Chicago Center
Tue 09:38:04 PM 41.9219 -86.8636 111° Southeast 495 570 35,000  Level Chicago Center
Tue 09:39:06 PM 41.8678 -86.6717 111° Southeast 496 571 35,000  Level Chicago Center
Tue 09:40:08 PM 41.8197 -86.5003 111° Southeast 494 568 35,000  Level Chicago Center
Tue 09:41:09 PM 41.7808 -86.3250 107° East 493 567 35,000  Level Chicago Center
Tue 09:42:11 PM 41.7531 -86.1456 102° East 494 568 35,000  Level Chicago Center
Tue 09:43:12 PM 41.7167 -85.9306 103° East 494 568 35,000  Level Chicago Center
Tue 09:44:14 PM 41.6875 -85.7492 102° East 500 575 35,000  Level Chicago Center
Tue 09:45:16 PM 41.6586 -85.5689 102° East 498 573 35,000  Level Chicago Center
Tue 09:46:17 PM 41.6289 -85.4025 103° East 497 572 35,000  Level Chicago Center
Tue 09:47:20 PM 41.5950 -85.1858 102° East 511 588 35,000  Level Chicago Center
Tue 09:48:20 PM 41.5633 -85.0042 103° East 507 583 35,000  Level Chicago Center
Tue 09:49:22 PM 41.5325 -84.8225 103° East 503 579 35,000  Level Chicago Center
Tue 09:50:23 PM 41.4997 -84.6381 103° East 510 587 35,000 49 Level Chicago Center
Tue 09:51:25 PM 41.4669 -84.4517 103° East 516 594 35,100  Climbing Chicago Center
Tue 09:52:26 PM 41.4339 -84.2653 103° East 517 595 35,000 -49 Descending Chicago Center
Tue 09:53:28 PM 41.4003 -84.0800 104° East 517 595 35,000  Level Chicago Center
Tue 09:54:29 PM 41.3667 -83.8956 104° East 513 590 35,000  Level Chicago Center
Tue 09:55:31 PM 41.3264 -83.6736 104° East 516 594 35,000  Level Chicago Center
Tue 09:56:47 PM 41.2828 -83.4411 104° East 517 595 35,000  Level Cleveland Center
Tue 09:57:48 PM 41.2481 -83.2536 104° East 520 598 35,000  Level Cleveland Center
Tue 09:58:49 PM 41.2147 -83.0819 104° East 524 603 35,000  Level Cleveland Center
Tue 09:59:51 PM 41.1719 -82.8589 104° East 531 611 35,000  Level Cleveland Center
Tue 10:00:52 PM 41.1356 -82.6686 104° East 529 609 35,000  Level Cleveland Center
Tue 10:01:54 PM 41.0981 -82.4781 105° East 529 609 35,000  Level Cleveland Center
Tue 10:02:55 PM 41.0608 -82.2886 105° East 529 609 35,000  Level Cleveland Center
Tue 10:03:57 PM 41.0231 -82.0975 105° East 532 612 35,000  Level Cleveland Center
Tue 10:04:58 PM 40.9839 -81.9058 105° East 537 618 35,000  Level Cleveland Center
Tue 10:06:00 PM 40.9450 -81.7136 105° East 539 620 35,000 -390 Level Cleveland Center
Tue 10:07:01 PM 40.9067 -81.5211 105° East 543 625 34,200 -1,073 Descending Cleveland Center
Tue 10:08:03 PM 40.8608 -81.3072 106° East 519 597 32,800 -1,610 Descending Cleveland Center
Tue 10:09:04 PM 40.8217 -81.1139 105° East 536 617 30,900 -2,049 Descending Cleveland Center
Tue 10:10:06 PM 40.7842 -80.9369 106° East 529 609 28,600 -2,293 Descending Cleveland Center
Tue 10:11:07 PM 40.7464 -80.7578 105° East 513 590 26,200 -1,756 Descending Cleveland Center
Tue 10:12:09 PM 40.7056 -80.5797 107° East 486 559 25,000 -585 Descending Cleveland Center
Tue 10:13:10 PM 40.6697 -80.4050 105° East 485 558 25,000  Level Cleveland Center
Tue 10:14:12 PM 40.6269 -80.2147 106° East 487 560 25,000  Level Cleveland Center
Tue 10:15:13 PM 40.5906 -80.0442 106° East 487 560 25,000  Level Cleveland Center
Tue 10:16:15 PM 40.5575 -79.8936 106° East 487 560 25,000  Level Cleveland Center
Tue 10:17:17 PM 40.5183 -79.7208 107° East 488 562 25,000  Level Cleveland Center
Tue 10:18:18 PM 40.4939 -79.5083 99° East 491 565 25,000  Level Cleveland Center
Tue 10:19:20 PM 40.4808 -79.3289 95° East 492 566 25,000  Level Cleveland Center
Tue 10:20:21 PM 40.4689 -79.1392 95° East 491 565 25,000  Level Cleveland Center
Tue 10:21:23 PM 40.4558 -78.9611 95° East 494 568 25,000  Level Cleveland Center
Tue 10:22:24 PM 40.4433 -78.7836 95° East 494 568 25,000  Level Cleveland Center
Tue 10:23:26 PM 40.4286 -78.6044 96° East 496 571 25,000  Level Cleveland Center
Tue 10:24:27 PM 40.4158 -78.4286 95° East 496 571 25,000  Level Cleveland Center
Tue 10:25:28 PM 40.4017 -78.2511 96° East 495 570 25,000  Level Cleveland Center
Tue 10:26:30 PM 40.3861 -78.0486 96° East 476 548 25,000  Level Cleveland Center
Tue 10:27:31 PM 40.3719 -77.8750 96° East 477 549 25,000 -146 Level Cleveland Center
Tue 10:28:33 PM 40.3567 -77.6969 96° East 489 563 24,700 -585 Descending Cleveland Center
Tue 10:29:34 PM 40.3422 -77.5233 96° East 489 563 23,800 -836 Descending Cleveland Center
Tue 10:30:35 PM 40.3272 -77.3497 96° East 484 557 23,000 -390 Descending Cleveland Center
Tue 10:31:37 PM 40.3106 -77.1628 97° East 475 547 23,000  Level Cleveland Center
Tue 10:32:38 PM 40.2842 -76.9906 101° East 480 552 23,000 -344 Level Cleveland Center
Tue 10:33:39 PM 40.2469 -76.8275 107° East 470 541 22,300 -909 Descending Cleveland Center
Tue 10:34:50 PM 40.2025 -76.6494 108° East 457 526 21,000 -1,878 Descending New York Center
Tue 10:35:50 PM 40.1631 -76.4775 107° East 445 512 18,200 -2,450 Descending New York Center
Tue 10:36:50 PM 40.1319 -76.3419 107° East 440 506 16,100 -2,500 Descending New York Center
Tue 10:37:50 PM 40.1125 -76.1775 99° East 416 479 13,200 -2,550 Descending New York Center
Tue 10:38:50 PM 40.1044 -76.0331 94° East 411 473 11,000 -1,550 Descending New York Center
Tue 10:39:50 PM 40.0936 -75.9019 96° East 384 442 10,100 -1,250 Descending New York Center
Tue 10:40:50 PM 40.0839 -75.7900 96° East 330 380 8,500 -1,100 Descending New York Center
Tue 10:41:50 PM 40.0736 -75.6889 98° East 312 359 7,900 -300 Descending New York Center
Tue 10:42:50 PM 40.0617 -75.5686 97° East 307 353 7,900 -650 Level New York Center
Tue 10:43:50 PM 40.0531 -75.4733 97° East 302 348 6,600 -1,500 Descending New York Center
Tue 10:44:50 PM 40.0431 -75.3558 96° East 292 336 4,900 -1,573 Descending New York Center
Tue 10:45:33 PM 40.0333 -75.2833 100° East 282 325 3,900 -1,096 Descending Philadelphia TRACON
Tue 10:46:34 PM 40.0333 -75.1833 90° East 252 290 3,000 -496 Descending Philadelphia TRACON
Tue 10:47:34 PM 40.0333 -75.1000 90° East 201 231 2,900  Descending Philadelphia TRACON
Tue 10:48:34 PM 40.0167 -75.0333 108° East 207 238 3,000 50 Climbing Philadelphia TRACON
Tue 10:49:34 PM 39.9833 -74.9833 131° Southeast 186 214 3,000  Level Philadelphia TRACON
Tue 10:50:34 PM 39.9500 -74.9833 180° South 170 196 3,000  Level Philadelphia TRACON
Tue 10:51:34 PM 39.9167 -75.0333 229° Southwest 171 197 3,000 -450 Level Philadelphia TRACON
Tue 10:52:34 PM 39.9000 -75.1000 252° West 170 196 2,100 -900 Descending Philadelphia TRACON
Tue 10:53:34 PM 39.8833 -75.1500 247° West 166 191 1,200 -850 Descending Philadelphia TRACON
Tue 10:54:34 PM 39.8833 -75.2000 270° West 129 148 400 -800 Descending Philadelphia TRACON

Login

Don't have an account? Register now (free) for customized features, flight alerts, and more!